createdAt,value
2022-12-15T00:01:01.119Z,16.09
2022-12-15T00:02:22.460Z,12.44
2022-12-15T00:03:44.351Z,14.28
2022-12-15T00:05:06.045Z,13.29
2022-12-15T00:06:27.529Z,13.22
2022-12-15T00:07:48.983Z,14.99
2022-12-15T00:09:14.189Z,14.41
2022-12-15T00:10:33.948Z,14.77
2022-12-15T00:11:55.482Z,14.35
2022-12-15T00:13:16.636Z,14.77
2022-12-15T00:14:37.764Z,14.05
2022-12-15T00:15:59.582Z,13.87
2022-12-15T00:17:21.053Z,15.06
2022-12-15T00:18:42.148Z,14.27
2022-12-15T00:20:04.268Z,14.96
2022-12-15T00:21:25.327Z,15.02
2022-12-15T00:22:46.646Z,14.76
2022-12-15T00:24:08.365Z,14.36
2022-12-15T00:25:29.675Z,16.03
2022-12-15T00:26:51.672Z,14.37
2022-12-15T00:28:13.405Z,14.28
2022-12-15T00:29:34.876Z,12.73
2022-12-15T00:31:02.315Z,14.14
2022-12-15T00:32:21.662Z,15.49
2022-12-15T00:33:42.841Z,14.18
2022-12-15T00:35:04.704Z,15.07
2022-12-15T00:36:26.119Z,13.54
2022-12-15T00:37:47.202Z,14.08
2022-12-15T00:39:08.760Z,14.23
2022-12-15T00:40:30.543Z,13.50
2022-12-15T00:41:51.854Z,13.93
2022-12-15T00:43:13.458Z,12.89
2022-12-15T00:44:35.025Z,13.72
2022-12-15T00:45:56.401Z,14.54
2022-12-15T00:47:17.407Z,14.06
2022-12-15T00:48:39.624Z,13.14
2022-12-15T00:50:00.889Z,11.81
2022-12-15T00:51:23.297Z,14.29
2022-12-15T00:52:44.373Z,11.66
2022-12-15T00:54:05.933Z,12.43
2022-12-15T00:55:27.462Z,15.24
2022-12-15T00:56:48.809Z,12.85
2022-12-15T00:58:10.023Z,14.74
2022-12-15T00:59:31.656Z,16.88
2022-12-15T01:00:53.005Z,16.39
2022-12-15T01:02:14.350Z,14.18
2022-12-15T01:03:36.251Z,14.33
2022-12-15T01:04:58.300Z,13.85
2022-12-15T01:06:19.671Z,14.07
2022-12-15T01:07:40.904Z,14.29
2022-12-15T01:09:03.015Z,12.73
2022-12-15T01:10:24.415Z,13.18
2022-12-15T01:11:45.669Z,12.67
2022-12-15T01:13:07.185Z,14.87
2022-12-15T01:14:28.507Z,16.47
2022-12-15T01:15:49.610Z,14.13
2022-12-15T01:17:10.935Z,13.58
2022-12-15T01:18:34.384Z,12.69
2022-12-15T01:19:55.783Z,13.39
2022-12-15T01:21:17.277Z,14.38
2022-12-15T01:22:38.956Z,14.33
2022-12-15T01:24:00.214Z,15.42
2022-12-15T01:25:23.061Z,18.21
2022-12-15T01:26:44.398Z,16.84
2022-12-15T01:28:05.933Z,25.19
2022-12-15T01:29:27.291Z,21.01
2022-12-15T01:30:48.785Z,18.71
2022-12-15T01:32:10.008Z,17.79
2022-12-15T01:33:32.041Z,19.26
2022-12-15T01:34:53.851Z,18.52
2022-12-15T01:36:15.073Z,16.14
2022-12-15T01:37:36.401Z,18.52
2022-12-15T01:38:57.796Z,26.86
2022-12-15T01:40:19.524Z,29.09
2022-12-15T01:41:40.668Z,25.44
2022-12-15T01:43:02.650Z,22.67
2022-12-15T01:44:24.115Z,23.56
2022-12-15T01:47:04.766Z,17.47
2022-12-15T01:48:46.902Z,23.71
2022-12-15T01:50:11.388Z,19.06
2022-12-15T01:51:38.612Z,14.21
2022-12-15T01:53:00.267Z,15.31
2022-12-15T01:54:24.592Z,15.56
2022-12-15T01:55:47.941Z,13.15
2022-12-15T01:57:12.443Z,12.77
2022-12-15T01:58:34.323Z,15.31
2022-12-15T01:59:58.040Z,13.78
2022-12-15T02:01:19.118Z,13.26
2022-12-15T02:02:40.902Z,14.12
2022-12-15T02:04:02.491Z,12.76
2022-12-15T02:05:24.017Z,13.39
2022-12-15T02:06:45.590Z,12.70
2022-12-15T02:08:06.743Z,16.27
2022-12-15T02:09:28.391Z,14.37
2022-12-15T02:11:10.380Z,13.06
2022-12-15T02:12:47.585Z,11.84
2022-12-15T02:14:10.126Z,11.46
2022-12-15T02:15:49.324Z,9.35
2022-12-15T02:17:17.179Z,11.66
2022-12-15T02:20:27.540Z,12.96
2022-12-15T02:21:55.556Z,12.99
2022-12-15T02:23:35.575Z,14.94
2022-12-15T02:25:09.415Z,15.44
2022-12-15T02:27:08.096Z,16.62
2022-12-15T02:28:49.339Z,16.51
2022-12-15T02:30:14.433Z,16.71
2022-12-15T02:31:54.108Z,16.62
2022-12-15T02:34:58.008Z,15.37
2022-12-15T02:36:28.745Z,13.66
2022-12-15T02:37:51.336Z,13.82
2022-12-15T02:39:12.729Z,14.44
2022-12-15T02:40:34.115Z,14.22
2022-12-15T02:41:55.400Z,13.73
2022-12-15T02:43:16.724Z,12.68
2022-12-15T02:44:46.054Z,14.62
2022-12-15T02:46:11.553Z,12.77
2022-12-15T02:47:57.860Z,14.43
2022-12-15T02:49:25.788Z,13.71
2022-12-15T02:51:00.018Z,12.67
2022-12-15T02:52:27.916Z,12.78
2022-12-15T02:54:04.504Z,14.04
2022-12-15T02:55:52.078Z,12.58
2022-12-15T02:57:25.506Z,21.32
2022-12-15T02:58:50.229Z,15.61
2022-12-15T03:00:12.517Z,12.67
2022-12-15T03:01:39.725Z,13.90
2022-12-15T03:03:01.494Z,16.15
2022-12-15T03:04:22.659Z,18.34
2022-12-15T03:05:44.183Z,18.92
2022-12-15T03:07:08.523Z,16.46
2022-12-15T03:08:29.936Z,13.33
2022-12-15T03:09:51.390Z,13.96
2022-12-15T03:11:12.928Z,13.12
2022-12-15T03:12:34.241Z,16.22
2022-12-15T03:13:55.667Z,14.78
2022-12-15T03:15:17.271Z,13.16
2022-12-15T03:16:41.251Z,14.00
2022-12-15T03:18:02.551Z,15.50
2022-12-15T03:19:24.011Z,14.53
2022-12-15T03:20:45.579Z,17.34
2022-12-15T03:22:06.883Z,14.33
2022-12-15T03:23:28.907Z,14.19
2022-12-15T03:24:50.925Z,17.85
2022-12-15T03:26:12.638Z,13.73
2022-12-15T03:27:35.320Z,17.18
2022-12-15T03:28:56.400Z,14.67
2022-12-15T03:30:18.249Z,13.00
2022-12-15T03:31:40.041Z,12.62
2022-12-15T03:33:01.663Z,13.02
2022-12-15T03:34:24.041Z,11.71
2022-12-15T03:35:45.511Z,11.36
2022-12-15T03:37:07.006Z,11.72
2022-12-15T03:38:28.926Z,16.75
2022-12-15T03:39:50.269Z,11.88
2022-12-15T03:41:11.388Z,10.88
2022-12-15T03:42:33.081Z,13.51
2022-12-15T03:43:55.003Z,11.12
2022-12-15T03:45:23.554Z,11.31
2022-12-15T03:46:44.978Z,10.94
2022-12-15T03:48:06.689Z,11.52
2022-12-15T03:49:28.045Z,11.76
2022-12-15T03:50:50.012Z,11.81
2022-12-15T03:52:11.186Z,12.10
2022-12-15T03:53:33.205Z,10.51
2022-12-15T03:54:54.785Z,11.69
2022-12-15T03:56:16.641Z,11.96
2022-12-15T03:57:39.528Z,11.54
2022-12-15T03:59:01.251Z,12.62
2022-12-15T04:00:23.153Z,15.34
2022-12-15T04:01:46.233Z,11.81
2022-12-15T04:03:08.329Z,13.37
2022-12-15T04:04:30.082Z,12.96
2022-12-15T04:05:51.292Z,13.01
2022-12-15T04:07:12.718Z,13.32
2022-12-15T04:08:34.356Z,14.17
2022-12-15T04:09:56.100Z,11.58
2022-12-15T04:11:17.969Z,12.21
2022-12-15T04:12:39.122Z,13.33
2022-12-15T04:14:00.459Z,13.69
2022-12-15T04:15:22.172Z,11.14
2022-12-15T04:16:44.653Z,12.18
2022-12-15T04:18:07.083Z,10.90
2022-12-15T04:19:29.555Z,13.45
2022-12-15T04:20:51.010Z,11.84
2022-12-15T04:22:17.784Z,12.96
2022-12-15T04:23:37.233Z,13.27
2022-12-15T04:24:58.608Z,15.23
2022-12-15T04:26:20.346Z,14.51
2022-12-15T04:27:41.492Z,22.44
2022-12-15T04:29:03.019Z,34.07
2022-12-15T04:30:24.766Z,35.71
2022-12-15T04:31:46.243Z,19.99
2022-12-15T04:33:10.841Z,19.42
2022-12-15T04:34:32.088Z,21.26
2022-12-15T04:35:54.970Z,14.27
2022-12-15T04:37:17.986Z,15.07
2022-12-15T04:40:02.638Z,16.92
2022-12-15T04:41:23.855Z,15.64
2022-12-15T04:42:50.394Z,15.47
2022-12-15T04:44:11.665Z,12.58
2022-12-15T04:45:35.812Z,13.05
2022-12-15T04:46:58.982Z,13.90
2022-12-15T04:48:20.391Z,13.52
2022-12-15T04:49:42.488Z,9.26
2022-12-15T04:51:04.196Z,11.83
2022-12-15T04:52:25.620Z,12.41
2022-12-15T04:53:47.035Z,11.65
2022-12-15T04:55:08.363Z,12.51
2022-12-15T04:56:30.914Z,12.63
2022-12-15T04:57:52.695Z,12.77
2022-12-15T04:59:14.188Z,12.62
2022-12-15T05:00:36.722Z,28.45
2022-12-15T05:01:57.902Z,28.83
2022-12-15T05:03:25.721Z,16.47
2022-12-15T05:04:46.923Z,19.47
2022-12-15T05:06:10.159Z,13.36
2022-12-15T05:09:17.056Z,13.80
2022-12-15T05:10:38.390Z,14.79
2022-12-15T05:12:00.495Z,14.01
2022-12-15T05:13:22.856Z,16.64
2022-12-15T05:14:45.274Z,18.85
2022-12-15T05:16:09.770Z,20.92
2022-12-15T05:17:34.598Z,17.52
2022-12-15T05:18:57.735Z,16.75
2022-12-15T05:20:19.132Z,18.14
2022-12-15T05:21:42.257Z,18.82
2022-12-15T05:23:03.659Z,17.69
2022-12-15T05:24:27.106Z,27.54
2022-12-15T05:25:50.187Z,14.33
2022-12-15T05:27:11.424Z,14.72
2022-12-15T05:28:36.219Z,19.52
2022-12-15T05:29:57.349Z,14.99
2022-12-15T05:31:20.689Z,14.53
2022-12-15T05:32:42.308Z,15.12
2022-12-15T05:34:09.238Z,14.37
2022-12-15T05:35:31.408Z,19.64
2022-12-15T05:36:53.545Z,21.77
2022-12-15T05:38:19.885Z,17.99
2022-12-15T05:39:43.352Z,14.16
2022-12-15T05:41:05.251Z,12.06
2022-12-15T05:42:34.808Z,14.22
2022-12-15T05:44:07.281Z,15.65
2022-12-15T05:45:38.333Z,12.26
2022-12-15T05:47:01.785Z,12.33
2022-12-15T05:48:24.164Z,12.72
2022-12-15T05:49:45.676Z,12.20
2022-12-15T05:51:07.967Z,12.65
2022-12-15T05:52:36.172Z,15.48
2022-12-15T05:53:57.270Z,12.58
2022-12-15T05:55:19.123Z,14.64
2022-12-15T05:56:40.512Z,14.73
2022-12-15T05:58:03.837Z,12.11
2022-12-15T05:59:27.918Z,12.38
2022-12-15T06:01:10.419Z,11.91
2022-12-15T06:04:16.878Z,15.23
2022-12-15T06:05:49.300Z,14.51
2022-12-15T06:08:29.960Z,14.26
2022-12-15T06:09:51.190Z,15.31
2022-12-15T06:11:13.782Z,12.28
2022-12-15T06:12:36.525Z,13.16
2022-12-15T06:13:57.893Z,12.46
2022-12-15T06:15:20.555Z,13.87
2022-12-15T06:16:50.020Z,12.97
2022-12-15T06:18:06.136Z,15.67
2022-12-15T06:19:27.331Z,11.99
2022-12-15T06:20:52.783Z,12.49
2022-12-15T06:22:14.277Z,11.74
2022-12-15T06:23:35.884Z,13.84
2022-12-15T06:24:58.345Z,13.49
2022-12-15T06:26:26.096Z,14.28
2022-12-15T06:27:47.916Z,12.74
2022-12-15T06:29:12.535Z,14.75
2022-12-15T06:31:45.629Z,14.05
2022-12-15T06:33:06.770Z,14.57
2022-12-15T06:34:28.280Z,14.04
2022-12-15T06:36:01.959Z,16.66
2022-12-15T06:37:23.397Z,17.12
2022-12-15T06:38:45.064Z,15.12
2022-12-15T06:40:10.035Z,16.30
2022-12-15T06:41:31.891Z,13.46
2022-12-15T06:42:53.532Z,13.53
2022-12-15T06:44:15.564Z,13.24
2022-12-15T06:45:36.999Z,12.60
2022-12-15T06:46:58.635Z,13.45
2022-12-15T06:48:21.504Z,10.93
2022-12-15T06:49:44.675Z,14.05
2022-12-15T06:51:16.410Z,34.55
2022-12-15T06:52:32.473Z,20.24
2022-12-15T06:53:54.512Z,15.16
2022-12-15T06:55:15.725Z,14.98
2022-12-15T06:56:38.125Z,14.68
2022-12-15T06:57:59.594Z,23.01
2022-12-15T06:59:20.923Z,22.07
2022-12-15T07:00:43.764Z,13.36
2022-12-15T07:02:04.974Z,13.03
2022-12-15T07:03:29.608Z,13.14
2022-12-15T07:04:51.366Z,11.86
2022-12-15T07:06:15.171Z,12.34
2022-12-15T07:07:36.785Z,12.74
2022-12-15T07:08:57.937Z,13.33
2022-12-15T07:10:20.845Z,12.10
2022-12-15T07:11:44.524Z,12.78
2022-12-15T07:13:08.563Z,12.32
2022-12-15T07:14:30.163Z,13.19
2022-12-15T07:15:52.426Z,14.38
2022-12-15T07:17:15.630Z,13.59
2022-12-15T07:18:37.264Z,11.73
2022-12-15T07:19:58.603Z,13.86
2022-12-15T07:21:21.225Z,17.87
2022-12-15T07:22:42.835Z,14.72
2022-12-15T07:24:07.052Z,12.29
2022-12-15T07:25:28.767Z,11.77
2022-12-15T07:27:58.704Z,13.15
2022-12-15T07:29:23.532Z,14.48
2022-12-15T07:30:43.663Z,14.64
2022-12-15T07:32:05.376Z,14.74
2022-12-15T07:33:26.949Z,12.58
2022-12-15T07:34:48.354Z,13.24
2022-12-15T07:36:09.937Z,14.77
2022-12-15T07:37:31.234Z,12.51
2022-12-15T07:38:59.192Z,16.08
2022-12-15T07:40:21.951Z,15.72
2022-12-15T07:41:43.248Z,17.16
2022-12-15T07:43:04.985Z,15.51
2022-12-15T07:44:26.456Z,12.19
2022-12-15T07:45:52.134Z,14.39
2022-12-15T07:47:13.689Z,12.37
2022-12-15T07:48:35.079Z,11.99
2022-12-15T07:49:57.350Z,15.84
2022-12-15T07:51:20.188Z,14.43
2022-12-15T07:52:42.065Z,13.19
2022-12-15T07:54:04.210Z,13.77
2022-12-15T07:55:43.635Z,12.21
2022-12-15T07:56:51.110Z,12.21
2022-12-15T07:58:12.235Z,19.96
2022-12-15T07:59:33.537Z,14.67
2022-12-15T08:00:58.885Z,14.62
2022-12-15T08:02:20.599Z,14.73
2022-12-15T08:03:42.000Z,13.82
2022-12-15T08:05:03.597Z,13.59
2022-12-15T08:06:24.858Z,14.10
2022-12-15T08:07:46.185Z,16.38
2022-12-15T08:09:07.803Z,16.09
2022-12-15T08:10:29.077Z,14.03
2022-12-15T08:11:50.136Z,13.89
2022-12-15T08:13:25.984Z,16.53
2022-12-15T08:14:35.994Z,15.08
2022-12-15T08:15:57.518Z,14.58
2022-12-15T08:17:19.064Z,14.89
2022-12-15T08:18:41.460Z,14.50
2022-12-15T08:20:09.637Z,14.48
2022-12-15T08:21:27.155Z,14.33
2022-12-15T08:22:52.746Z,15.34
2022-12-15T08:24:16.445Z,15.14
2022-12-15T08:25:37.836Z,14.86
2022-12-15T08:26:59.433Z,21.09
2022-12-15T08:28:20.960Z,17.54
2022-12-15T08:29:51.443Z,21.38
2022-12-15T08:32:59.014Z,19.51
2022-12-15T08:39:28.161Z,22.57
2022-12-15T08:41:11.758Z,21.46
2022-12-15T08:42:35.697Z,26.92
2022-12-15T08:43:57.895Z,14.47
2022-12-15T08:45:19.311Z,15.90
2022-12-15T08:46:40.655Z,16.53
2022-12-15T08:48:01.988Z,16.15
2022-12-15T08:49:24.322Z,14.07
2022-12-15T08:50:46.560Z,13.33
2022-12-15T08:52:08.063Z,13.92
2022-12-15T08:53:31.868Z,14.39
2022-12-15T08:56:33.076Z,14.93
2022-12-15T08:57:54.239Z,14.27
2022-12-15T08:59:16.207Z,15.50
2022-12-15T09:00:37.664Z,16.62
2022-12-15T09:01:58.871Z,17.83
2022-12-15T09:03:22.965Z,15.36
2022-12-15T09:04:44.396Z,14.08
2022-12-15T09:06:08.028Z,14.64
2022-12-15T09:07:30.436Z,15.28
2022-12-15T09:09:00.348Z,15.32
2022-12-15T09:10:22.701Z,14.19
2022-12-15T09:11:45.492Z,15.11
2022-12-15T09:13:06.772Z,14.79
2022-12-15T09:14:29.618Z,17.84
2022-12-15T09:16:17.341Z,17.06
2022-12-15T09:17:45.816Z,18.31
2022-12-15T09:19:13.525Z,16.78
2022-12-15T09:21:59.828Z,20.16
2022-12-15T09:23:21.630Z,18.34
2022-12-15T09:24:43.650Z,21.94
2022-12-15T09:26:07.267Z,19.44
2022-12-15T09:27:29.772Z,19.78
2022-12-15T09:28:51.387Z,28.65
2022-12-15T09:30:16.500Z,27.97
2022-12-15T09:31:45.444Z,18.90
2022-12-15T09:33:12.818Z,18.10
2022-12-15T09:34:35.270Z,17.11
2022-12-15T09:36:01.718Z,19.14
2022-12-15T09:37:22.800Z,21.25
2022-12-15T09:38:44.466Z,17.14
2022-12-15T09:54:34.686Z,18.28
2022-12-15T12:35:30.626Z,19.38
2022-12-15T12:38:11.369Z,17.27
2022-12-15T12:39:32.786Z,19.43
2022-12-15T12:41:15.140Z,17.18
2022-12-15T12:42:41.688Z,16.77
2022-12-15T12:45:47.863Z,17.96
2022-12-15T12:47:14.804Z,17.23
2022-12-15T12:48:45.665Z,18.42
2022-12-15T12:50:16.335Z,18.92
2022-12-15T12:51:39.552Z,18.32
2022-12-15T12:53:01.540Z,16.42
2022-12-15T12:54:35.719Z,18.36
2022-12-15T12:55:57.343Z,17.46
2022-12-15T12:57:40.745Z,17.68
2022-12-15T12:59:23.391Z,19.03
2022-12-15T13:00:53.725Z,17.44
2022-12-15T13:02:24.773Z,17.10
2022-12-15T13:03:49.546Z,18.97
2022-12-15T13:05:33.818Z,18.99
2022-12-15T13:07:01.051Z,18.23
2022-12-15T13:08:32.971Z,19.08
2022-12-15T13:10:12.437Z,21.38
2022-12-15T13:11:55.542Z,19.49
2022-12-15T13:13:31.827Z,21.23
2022-12-15T13:15:02.421Z,19.32
2022-12-15T13:16:30.802Z,18.04
2022-12-15T13:17:54.947Z,19.62
2022-12-15T13:20:31.190Z,18.69
2022-12-15T13:21:54.089Z,16.94
2022-12-15T13:23:25.944Z,18.27
2022-12-15T13:24:51.759Z,16.02
2022-12-15T13:26:19.973Z,19.44
2022-12-15T13:27:41.567Z,17.29
2022-12-15T13:29:06.054Z,18.98
2022-12-15T13:30:34.035Z,16.55
2022-12-15T13:31:58.923Z,17.05
2022-12-15T13:33:26.215Z,17.01
2022-12-15T13:34:52.028Z,16.94
2022-12-15T13:36:34.600Z,19.61
2022-12-15T13:39:57.278Z,16.29
2022-12-15T13:41:24.887Z,18.57
2022-12-15T13:42:56.293Z,20.07
2022-12-15T13:44:25.397Z,22.39
2022-12-15T13:45:50.985Z,17.90
2022-12-15T13:47:25.973Z,16.50
2022-12-15T13:50:14.318Z,15.73
2022-12-15T13:51:37.860Z,15.51
2022-12-15T13:56:07.524Z,15.77
2022-12-15T13:57:29.150Z,16.30
2022-12-15T13:58:54.659Z,14.59
2022-12-15T14:00:16.008Z,14.77
2022-12-15T14:01:37.158Z,16.42
2022-12-15T14:03:05.341Z,16.22
2022-12-15T14:04:26.486Z,16.02
2022-12-15T14:05:52.431Z,15.62
2022-12-15T14:07:13.447Z,17.21
2022-12-15T14:08:34.937Z,15.69
2022-12-15T14:09:56.527Z,15.29
2022-12-15T14:11:50.799Z,15.20
2022-12-15T14:12:44.913Z,16.23
2022-12-15T14:14:08.531Z,16.90
2022-12-15T14:15:43.688Z,16.83
2022-12-15T14:18:30.116Z,22.89
2022-12-15T14:19:51.534Z,19.21
2022-12-15T14:22:35.279Z,19.02
2022-12-15T14:24:37.530Z,16.65
2022-12-15T14:25:29.062Z,16.67
2022-12-15T14:26:50.809Z,16.44
2022-12-15T14:28:26.943Z,14.78
2022-12-15T14:29:48.276Z,16.46
2022-12-15T14:31:16.013Z,17.98
2022-12-15T14:32:37.687Z,14.52
2022-12-15T14:34:23.390Z,15.53
2022-12-15T14:35:49.520Z,14.02
2022-12-15T14:37:11.856Z,14.79
2022-12-15T14:38:43.357Z,14.47
2022-12-15T14:40:05.788Z,12.21
2022-12-15T14:41:28.198Z,14.59
2022-12-15T14:44:37.808Z,13.42
2022-12-15T14:46:18.445Z,17.04
2022-12-15T14:47:40.686Z,16.04
2022-12-15T14:49:06.862Z,14.41
2022-12-15T14:50:29.137Z,15.62
2022-12-15T14:51:51.794Z,14.62
2022-12-15T14:54:38.817Z,16.58
2022-12-15T14:57:51.495Z,24.40
2022-12-15T14:59:19.183Z,23.35
2022-12-15T15:02:35.420Z,26.74
2022-12-15T15:04:05.664Z,25.82
2022-12-15T15:06:52.295Z,25.59
2022-12-15T15:08:36.507Z,27.65
2022-12-15T15:09:59.133Z,28.50
2022-12-15T15:11:26.682Z,23.44
2022-12-15T15:12:48.225Z,29.63
2022-12-15T15:14:22.705Z,30.51
2022-12-15T15:18:24.733Z,22.76
2022-12-15T15:21:26.022Z,27.51
2022-12-15T15:23:09.562Z,29.13
2022-12-15T15:24:35.488Z,26.76
2022-12-15T15:26:06.416Z,28.87
2022-12-15T15:27:34.550Z,24.13
2022-12-15T15:28:56.103Z,25.37
2022-12-15T15:30:20.883Z,24.33
2022-12-15T15:31:42.460Z,25.33
2022-12-15T15:33:03.815Z,19.93
2022-12-15T15:34:25.669Z,22.07
2022-12-15T15:35:50.425Z,24.39
2022-12-15T15:37:21.923Z,24.35
2022-12-15T15:38:44.033Z,20.47
2022-12-15T15:40:13.461Z,20.31
2022-12-15T15:41:35.236Z,21.79
2022-12-15T15:43:05.802Z,21.56
2022-12-15T15:44:27.521Z,21.23
2022-12-15T15:47:04.766Z,16.98
2022-12-15T15:48:28.179Z,19.98
2022-12-15T15:49:50.972Z,19.82
2022-12-15T15:51:12.793Z,20.71
2022-12-15T15:52:51.539Z,21.16
2022-12-15T15:54:14.575Z,19.84
2022-12-15T15:55:39.552Z,20.85
2022-12-15T15:57:00.029Z,20.96
2022-12-15T15:58:21.453Z,19.93
2022-12-15T15:59:44.049Z,22.69
2022-12-15T16:01:13.087Z,24.46
2022-12-15T16:02:31.996Z,21.20
2022-12-15T16:03:53.505Z,23.16
2022-12-15T16:05:15.286Z,28.96
2022-12-15T16:06:39.686Z,20.88
2022-12-15T16:08:00.663Z,26.15
2022-12-15T16:09:21.981Z,23.65
2022-12-15T16:10:44.979Z,28.47
2022-12-15T16:12:09.461Z,23.86
2022-12-15T16:13:30.765Z,26.88
2022-12-15T16:14:53.275Z,22.26
2022-12-15T16:16:22.466Z,20.78
2022-12-15T16:17:44.178Z,24.93
2022-12-15T16:19:05.755Z,26.47
2022-12-15T16:20:28.477Z,32.36
2022-12-15T16:21:49.816Z,29.31
2022-12-15T16:23:16.821Z,27.93
2022-12-15T16:24:38.995Z,30.63
2022-12-15T16:26:00.587Z,31.93
2022-12-15T16:27:22.097Z,35.34
2022-12-15T16:28:43.488Z,36.41
2022-12-15T16:31:41.023Z,36.61
2022-12-15T16:32:58.328Z,35.11
2022-12-15T16:34:22.882Z,33.77
2022-12-15T16:35:44.157Z,30.45
2022-12-15T16:37:05.737Z,30.57
2022-12-15T16:38:32.152Z,27.12
2022-12-15T16:39:53.503Z,26.91
2022-12-15T16:41:15.912Z,25.46
2022-12-15T16:42:37.535Z,24.49
2022-12-15T16:44:02.295Z,28.37
2022-12-15T16:45:24.689Z,25.29
2022-12-15T16:46:46.224Z,32.61
2022-12-15T16:48:07.601Z,30.08
2022-12-15T16:49:39.622Z,31.13
2022-12-15T16:51:28.399Z,30.01
2022-12-15T16:52:50.433Z,27.70
2022-12-15T16:54:17.652Z,30.32
2022-12-15T16:55:40.234Z,27.03
2022-12-15T16:57:02.315Z,26.09
2022-12-15T16:58:24.031Z,23.79
2022-12-15T16:59:50.355Z,24.16
2022-12-15T17:01:11.836Z,28.03
2022-12-15T17:02:35.035Z,26.06
2022-12-15T17:03:56.663Z,24.58
2022-12-15T17:05:18.354Z,25.90
2022-12-15T17:06:39.971Z,23.22
2022-12-15T17:08:04.359Z,17.33
2022-12-15T17:09:25.408Z,22.27
2022-12-15T17:10:48.099Z,22.39
2022-12-15T17:12:13.778Z,22.10
2022-12-15T17:13:43.568Z,21.98
2022-12-15T17:15:00.018Z,19.52
2022-12-15T17:16:23.116Z,21.55
2022-12-15T17:17:44.361Z,20.34
2022-12-15T17:19:05.427Z,23.14
2022-12-15T17:20:29.454Z,28.38
2022-12-15T17:21:53.038Z,26.73
2022-12-15T17:23:20.006Z,26.26
2022-12-15T17:24:41.735Z,25.61
2022-12-15T17:26:25.868Z,25.87
2022-12-15T17:28:37.622Z,37.11
2022-12-15T17:29:58.976Z,33.56
2022-12-15T17:31:22.332Z,41.40
2022-12-15T17:32:44.031Z,43.72
2022-12-15T17:34:26.399Z,47.62
2022-12-15T17:35:49.545Z,46.33
2022-12-15T17:37:12.941Z,42.30
2022-12-15T17:38:34.393Z,40.44
2022-12-15T17:39:55.915Z,40.58
2022-12-15T17:41:35.403Z,38.90
2022-12-15T17:42:41.667Z,33.29
2022-12-15T17:44:31.574Z,28.82
2022-12-15T17:45:27.688Z,25.14
2022-12-15T17:46:49.153Z,25.11
2022-12-15T17:48:11.211Z,27.46
2022-12-15T17:49:36.188Z,28.62
2022-12-15T17:50:55.673Z,28.41
2022-12-15T17:52:26.282Z,27.03
2022-12-15T17:53:48.229Z,24.70
2022-12-15T17:56:37.743Z,23.39
2022-12-15T17:57:59.593Z,28.55
2022-12-15T17:59:21.165Z,27.73
2022-12-15T18:00:48.923Z,29.75
2022-12-15T18:02:07.654Z,29.89
2022-12-15T18:03:34.664Z,26.13
2022-12-15T18:04:56.070Z,26.32
2022-12-15T18:06:17.844Z,28.05
2022-12-15T18:07:39.178Z,26.02
2022-12-15T18:09:02.057Z,27.98
2022-12-15T18:10:34.623Z,25.87
2022-12-15T18:11:55.862Z,27.01
2022-12-15T18:13:19.505Z,26.64
2022-12-15T18:14:40.950Z,29.62
2022-12-15T18:16:02.097Z,25.73
2022-12-15T18:17:23.632Z,23.80
2022-12-15T18:18:44.760Z,24.23
2022-12-15T18:20:08.041Z,25.17
2022-12-15T18:21:29.559Z,23.51
2022-12-15T18:22:52.332Z,21.38
2022-12-15T18:24:16.866Z,26.67
2022-12-15T18:25:38.044Z,23.29
2022-12-15T18:26:59.528Z,23.81
2022-12-15T18:28:25.764Z,23.72
2022-12-15T18:29:47.015Z,23.04
2022-12-15T18:31:15.008Z,24.70
2022-12-15T18:32:36.314Z,25.46
2022-12-15T18:34:04.004Z,23.17
2022-12-15T18:36:43.253Z,36.57
2022-12-15T18:38:23.932Z,57.70
2022-12-15T18:39:45.458Z,50.68
2022-12-15T18:41:09.158Z,46.50
2022-12-15T18:42:30.504Z,51.41
2022-12-15T18:43:52.059Z,35.67
2022-12-15T18:45:18.695Z,32.47
2022-12-15T18:46:46.203Z,35.36
2022-12-15T18:48:05.602Z,40.79
2022-12-15T18:49:26.878Z,51.18
2022-12-15T18:50:50.002Z,42.45
2022-12-15T18:53:34.439Z,43.54
2022-12-15T18:54:56.579Z,48.86
2022-12-15T18:56:18.603Z,50.17
2022-12-15T18:57:39.899Z,48.14
2022-12-15T18:59:00.917Z,52.41
2022-12-15T19:00:26.309Z,46.15
2022-12-15T19:01:47.892Z,39.22
2022-12-15T19:03:09.817Z,46.06
2022-12-15T19:04:31.069Z,48.51
2022-12-15T19:06:04.197Z,42.07
2022-12-15T19:07:25.424Z,43.72
2022-12-15T19:08:47.283Z,45.91
2022-12-15T19:10:12.996Z,44.84
2022-12-15T19:11:34.496Z,49.40
2022-12-15T19:12:58.754Z,43.36
2022-12-15T19:15:39.698Z,44.61
2022-12-15T19:17:00.954Z,41.86
2022-12-15T19:18:23.172Z,42.67
2022-12-15T19:19:44.503Z,43.22
2022-12-15T19:21:20.406Z,44.21
2022-12-15T19:22:42.393Z,39.62
2022-12-15T19:25:25.941Z,65.58
2022-12-15T19:26:46.324Z,73.56
2022-12-15T19:28:13.643Z,64.39
2022-12-15T19:29:34.962Z,73.27
2022-12-15T19:30:56.009Z,72.73
2022-12-15T19:32:17.505Z,66.04
2022-12-15T19:33:38.592Z,45.31
2022-12-15T19:35:02.473Z,53.17
2022-12-15T19:36:23.916Z,42.46
2022-12-15T19:37:45.331Z,43.16
2022-12-15T19:39:07.077Z,38.53
2022-12-15T19:40:29.803Z,53.63
2022-12-15T19:41:51.342Z,67.44
2022-12-15T19:43:14.795Z,46.24
2022-12-15T19:44:36.167Z,33.26
2022-12-15T19:45:57.740Z,35.87
2022-12-15T19:47:19.277Z,31.77
2022-12-15T19:48:40.239Z,24.61
2022-12-15T19:50:01.305Z,29.96
2022-12-15T19:51:23.006Z,28.19
2022-12-15T19:52:45.675Z,27.51
2022-12-15T19:54:08.242Z,25.58
2022-12-15T19:55:30.490Z,25.54
2022-12-15T19:56:53.271Z,23.82
2022-12-15T19:59:40.372Z,21.54
2022-12-15T20:01:07.946Z,27.99
2022-12-15T20:02:29.511Z,23.87
2022-12-15T20:03:51.465Z,23.52
2022-12-15T20:05:12.842Z,23.83
2022-12-15T20:06:34.673Z,26.07
2022-12-15T20:07:56.169Z,22.47
2022-12-15T20:09:18.357Z,30.17
2022-12-15T20:10:39.725Z,21.84
2022-12-15T20:12:00.911Z,24.80
2022-12-15T20:13:22.466Z,21.42
2022-12-15T20:14:44.589Z,23.70
2022-12-15T20:16:07.785Z,26.29
2022-12-15T20:17:29.492Z,26.28
2022-12-15T20:18:52.750Z,23.91
2022-12-15T20:20:16.758Z,24.15
2022-12-15T20:21:38.721Z,25.18
2022-12-15T20:23:03.048Z,23.17
2022-12-15T20:24:24.162Z,25.04
2022-12-15T20:25:45.172Z,25.83
2022-12-15T20:27:15.040Z,25.16
2022-12-15T20:28:36.103Z,27.21
2022-12-15T20:29:57.376Z,24.83
2022-12-15T20:31:20.333Z,26.22
2022-12-15T20:32:41.864Z,24.28
2022-12-15T20:34:02.775Z,23.33
2022-12-15T20:35:23.790Z,24.04
2022-12-15T20:36:44.941Z,25.33
2022-12-15T20:38:24.000Z,24.81
2022-12-15T20:39:45.146Z,23.43
2022-12-15T20:41:06.243Z,24.26
2022-12-15T20:42:27.504Z,24.80
2022-12-15T20:43:48.946Z,21.36
2022-12-15T20:45:15.129Z,25.18
2022-12-15T20:46:36.631Z,24.54
2022-12-15T20:49:13.896Z,24.12
2022-12-15T20:50:37.374Z,23.51
2022-12-15T20:53:21.205Z,22.27
2022-12-15T20:54:42.231Z,19.31
2022-12-15T20:56:04.105Z,23.43
2022-12-15T20:57:25.295Z,24.71
2022-12-15T20:58:46.325Z,24.00
2022-12-15T21:00:08.878Z,25.34
2022-12-15T21:01:32.655Z,24.13
2022-12-15T21:02:55.212Z,24.82
2022-12-15T21:05:46.600Z,22.66
2022-12-15T21:07:09.183Z,23.10
2022-12-15T21:08:30.735Z,23.80
2022-12-15T21:09:52.074Z,23.06
2022-12-15T21:11:18.034Z,24.64
2022-12-15T21:12:39.901Z,23.01
2022-12-15T21:14:00.960Z,26.20
2022-12-15T21:15:22.745Z,26.05
2022-12-15T21:16:44.352Z,24.04
2022-12-15T21:18:46.630Z,24.87
2022-12-15T21:19:29.549Z,22.72
2022-12-15T21:20:52.290Z,25.73
2022-12-15T21:22:19.101Z,24.18
2022-12-15T21:23:42.844Z,23.67
2022-12-15T21:26:25.067Z,23.99
2022-12-15T21:27:46.120Z,22.96
2022-12-15T21:29:15.350Z,25.02
2022-12-15T21:30:37.111Z,23.96
2022-12-15T21:33:07.511Z,24.01
2022-12-15T21:34:29.132Z,23.42
2022-12-15T21:35:50.636Z,23.54
2022-12-15T21:37:27.143Z,22.09
2022-12-15T21:38:49.207Z,24.29
2022-12-15T21:41:27.603Z,22.33
2022-12-15T21:42:49.281Z,22.63
2022-12-15T21:45:23.353Z,16.54
2022-12-15T21:46:44.645Z,22.76
2022-12-15T21:48:07.604Z,21.38
2022-12-15T21:49:28.563Z,21.81
2022-12-15T21:50:49.804Z,20.36
2022-12-15T21:52:13.159Z,21.52
2022-12-15T21:53:34.739Z,22.94
2022-12-15T21:54:55.729Z,19.69
2022-12-15T21:56:17.632Z,21.48
2022-12-15T21:57:39.012Z,20.72
2022-12-15T21:59:00.784Z,20.42
2022-12-15T22:00:22.761Z,21.61
2022-12-15T22:01:45.810Z,20.46
2022-12-15T22:03:08.591Z,19.41
2022-12-15T22:05:51.714Z,19.42